sensor_id;sensor_type;location;lat;lon;timestamp;pressure;altitude;pressure_sealevel;temperature;humidity
72414;BME280;60995;52.154;4.498;2023-04-08T00:02:02;102283.50;;;11.04;75.43
72414;BME280;60995;52.154;4.498;2023-04-08T00:04:19;102290.13;;;11.00;76.19
72414;BME280;60995;52.154;4.498;2023-04-08T00:06:35;102276.53;;;11.00;76.29
72414;BME280;60995;52.154;4.498;2023-04-08T00:08:52;102283.47;;;10.91;76.66
72414;BME280;60995;52.154;4.498;2023-04-08T00:11:08;102285.78;;;10.70;77.17
72414;BME280;60995;52.154;4.498;2023-04-08T00:13:24;102295.13;;;10.52;78.68
72414;BME280;60995;52.154;4.498;2023-04-08T00:15:41;102286.75;;;10.69;78.77
72414;BME280;60995;52.154;4.498;2023-04-08T00:17:57;102289.66;;;10.66;78.69
72414;BME280;60995;52.154;4.498;2023-04-08T00:20:14;102286.38;;;10.61;79.15
72414;BME280;60995;52.154;4.498;2023-04-08T00:22:30;102289.47;;;10.69;78.47
72414;BME280;60995;52.154;4.498;2023-04-08T00:24:46;102295.88;;;10.68;78.98
72414;BME280;60995;52.154;4.498;2023-04-08T00:27:03;102288.81;;;10.66;78.89
72414;BME280;60995;52.154;4.498;2023-04-08T00:29:19;102288.56;;;10.56;79.87
72414;BME280;60995;52.154;4.498;2023-04-08T00:31:35;102286.19;;;10.64;79.68
72414;BME280;60995;52.154;4.498;2023-04-08T00:33:51;102293.78;;;10.59;79.72
72414;BME280;60995;52.154;4.498;2023-04-08T00:36:08;102297.44;;;10.58;80.19
72414;BME280;60995;52.154;4.498;2023-04-08T00:38:24;102289.19;;;10.59;80.05
72414;BME280;60995;52.154;4.498;2023-04-08T00:40:41;102298.59;;;10.68;79.97
72414;BME280;60995;52.154;4.498;2023-04-08T00:42:57;102294.91;;;10.69;79.87
72414;BME280;60995;52.154;4.498;2023-04-08T00:45:13;102296.28;;;10.62;79.66
72414;BME280;60995;52.154;4.498;2023-04-08T00:47:30;102305.03;;;10.53;80.37
72414;BME280;60995;52.154;4.498;2023-04-08T00:49:47;102298.06;;;10.49;80.70
72414;BME280;60995;52.154;4.498;2023-04-08T00:52:03;102295.09;;;10.66;80.31
72414;BME280;60995;52.154;4.498;2023-04-08T00:54:19;102297.97;;;10.78;79.97
72414;BME280;60995;52.154;4.498;2023-04-08T00:56:36;102293.72;;;10.73;79.77
72414;BME280;60995;52.154;4.498;2023-04-08T00:58:53;102298.13;;;10.62;80.21
72414;BME280;60995;52.154;4.498;2023-04-08T01:07:17;102301.59;;;10.64;79.70
72414;BME280;60995;52.154;4.498;2023-04-08T01:09:38;102298.81;;;10.65;79.99
72414;BME280;60995;52.154;4.498;2023-04-08T01:12:03;102298.31;;;10.58;79.91
72414;BME280;60995;52.154;4.498;2023-04-08T01:14:25;102294.13;;;10.67;79.98
72414;BME280;60995;52.154;4.498;2023-04-08T01:16:44;102303.44;;;10.63;80.31
72414;BME280;60995;52.154;4.498;2023-04-08T01:19:01;102304.16;;;10.52;80.34
72414;BME280;60995;52.154;4.498;2023-04-08T01:21:21;102297.66;;;10.55;80.30
72414;BME280;60995;52.154;4.498;2023-04-08T01:23:47;102305.75;;;10.69;80.16
72414;BME280;60995;52.154;4.498;2023-04-08T01:26:20;102313.75;;;10.58;80.34
72414;BME280;60995;52.154;4.498;2023-04-08T01:28:39;102308.91;;;10.49;80.13
72414;BME280;60995;52.154;4.498;2023-04-08T01:31:00;102306.78;;;10.54;79.96
72414;BME280;60995;52.154;4.498;2023-04-08T01:33:18;102294.38;;;10.50;80.29
72414;BME280;60995;52.154;4.498;2023-04-08T01:35:37;102303.94;;;10.55;80.54
72414;BME280;60995;52.154;4.498;2023-04-08T01:37:54;102302.19;;;10.54;80.45
72414;BME280;60995;52.154;4.498;2023-04-08T01:40:12;102303.75;;;10.58;80.38
72414;BME280;60995;52.154;4.498;2023-04-08T01:42:31;102305.53;;;10.72;79.85
72414;BME280;60995;52.154;4.498;2023-04-08T01:44:50;102305.91;;;10.53;79.64
72414;BME280;60995;52.154;4.498;2023-04-08T01:47:12;102313.00;;;10.41;80.13
72414;BME280;60995;52.154;4.498;2023-04-08T01:49:29;102304.56;;;10.46;80.51
72414;BME280;60995;52.154;4.498;2023-04-08T01:51:47;102311.63;;;10.49;79.87
72414;BME280;60995;52.154;4.498;2023-04-08T01:54:04;102308.00;;;10.35;80.00
72414;BME280;60995;52.154;4.498;2023-04-08T01:56:21;102310.66;;;10.50;79.64
72414;BME280;60995;52.154;4.498;2023-04-08T01:58:41;102318.84;;;10.35;79.98
72414;BME280;60995;52.154;4.498;2023-04-08T02:01:03;102313.78;;;10.29;80.22
72414;BME280;60995;52.154;4.498;2023-04-08T02:03:26;102315.41;;;10.46;79.94
72414;BME280;60995;52.154;4.498;2023-04-08T02:05:45;102314.28;;;10.36;80.34
72414;BME280;60995;52.154;4.498;2023-04-08T02:08:02;102308.25;;;10.45;80.25
72414;BME280;60995;52.154;4.498;2023-04-08T02:10:18;102305.91;;;10.53;80.67
72414;BME280;60995;52.154;4.498;2023-04-08T02:12:34;102310.28;;;10.41;80.52
72414;BME280;60995;52.154;4.498;2023-04-08T02:14:51;102315.03;;;10.52;80.74
72414;BME280;60995;52.154;4.498;2023-04-08T02:17:18;102311.25;;;10.55;80.75
72414;BME280;60995;52.154;4.498;2023-04-08T02:19:44;102314.25;;;10.50;80.64
72414;BME280;60995;52.154;4.498;2023-04-08T02:22:13;102324.09;;;10.66;80.50
72414;BME280;60995;52.154;4.498;2023-04-08T02:24:34;102315.78;;;10.54;80.08
72414;BME280;60995;52.154;4.498;2023-04-08T02:26:55;102318.59;;;10.53;80.73
72414;BME280;60995;52.154;4.498;2023-04-08T02:29:14;102317.75;;;10.52;80.94
72414;BME280;60995;52.154;4.498;2023-04-08T02:31:33;102320.94;;;10.45;80.46
72414;BME280;60995;52.154;4.498;2023-04-08T02:33:50;102316.50;;;10.43;80.85
72414;BME280;60995;52.154;4.498;2023-04-08T02:36:08;102317.47;;;10.42;80.84
72414;BME280;60995;52.154;4.498;2023-04-08T02:38:26;102322.50;;;10.49;80.86
72414;BME280;60995;52.154;4.498;2023-04-08T02:40:44;102315.88;;;10.53;80.25
72414;BME280;60995;52.154;4.498;2023-04-08T02:43:00;102321.13;;;10.56;80.32
72414;BME280;60995;52.154;4.498;2023-04-08T02:45:17;102319.72;;;10.63;80.00
72414;BME280;60995;52.154;4.498;2023-04-08T02:47:33;102317.63;;;10.54;80.44
72414;BME280;60995;52.154;4.498;2023-04-08T02:49:50;102328.72;;;10.64;79.99
72414;BME280;60995;52.154;4.498;2023-04-08T02:52:08;102325.81;;;10.39;80.00
72414;BME280;60995;52.154;4.498;2023-04-08T02:54:24;102329.00;;;10.46;80.34
72414;BME280;60995;52.154;4.498;2023-04-08T02:56:40;102325.13;;;10.36;80.26
72414;BME280;60995;52.154;4.498;2023-04-08T02:58:57;102325.69;;;10.41;80.54
72414;BME280;60995;52.154;4.498;2023-04-08T03:01:13;102334.31;;;10.33;80.51
72414;BME280;60995;52.154;4.498;2023-04-08T03:03:29;102327.63;;;10.24;80.60
72414;BME280;60995;52.154;4.498;2023-04-08T03:05:46;102335.88;;;10.23;81.19
72414;BME280;60995;52.154;4.498;2023-04-08T03:08:02;102338.00;;;10.18;81.11
72414;BME280;60995;52.154;4.498;2023-04-08T03:10:18;102343.63;;;10.15;81.25
72414;BME280;60995;52.154;4.498;2023-04-08T03:12:35;102338.78;;;10.20;81.84
72414;BME280;60995;52.154;4.498;2023-04-08T03:14:51;102351.78;;;10.00;82.08
72414;BME280;60995;52.154;4.498;2023-04-08T03:17:07;102342.47;;;10.04;81.96
72414;BME280;60995;52.154;4.498;2023-04-08T03:19:23;102342.75;;;10.14;81.85
72414;BME280;60995;52.154;4.498;2023-04-08T03:21:40;102341.66;;;10.17;81.61
72414;BME280;60995;52.154;4.498;2023-04-08T03:23:56;102332.97;;;10.12;81.49
72414;BME280;60995;52.154;4.498;2023-04-08T03:26:12;102342.19;;;10.09;81.75
72414;BME280;60995;52.154;4.498;2023-04-08T03:28:29;102335.38;;;10.16;81.28
72414;BME280;60995;52.154;4.498;2023-04-08T03:30:45;102345.56;;;10.13;81.25
72414;BME280;60995;52.154;4.498;2023-04-08T03:33:01;102335.88;;;10.08;80.89
72414;BME280;60995;52.154;4.498;2023-04-08T03:35:20;102341.31;;;9.94;81.40
72414;BME280;60995;52.154;4.498;2023-04-08T03:37:36;102337.44;;;9.84;81.19
72414;BME280;60995;52.154;4.498;2023-04-08T03:39:54;102348.00;;;9.74;81.31
72414;BME280;60995;52.154;4.498;2023-04-08T03:42:10;102348.25;;;9.69;81.85
72414;BME280;60995;52.154;4.498;2023-04-08T03:44:27;102344.13;;;9.48;82.14
72414;BME280;60995;52.154;4.498;2023-04-08T03:46:43;102349.19;;;9.54;82.21
72414;BME280;60995;52.154;4.498;2023-04-08T03:48:59;102354.03;;;9.63;81.54
72414;BME280;60995;52.154;4.498;2023-04-08T03:51:15;102356.38;;;9.55;81.56
72414;BME280;60995;52.154;4.498;2023-04-08T03:53:32;102366.00;;;9.44;82.00
72414;BME280;60995;52.154;4.498;2023-04-08T03:55:48;102366.56;;;9.35;83.43
72414;BME280;60995;52.154;4.498;2023-04-08T03:58:07;102375.56;;;9.36;83.41
72414;BME280;60995;52.154;4.498;2023-04-08T04:00:24;102382.22;;;9.30;84.20
72414;BME280;60995;52.154;4.498;2023-04-08T04:02:40;102377.09;;;9.09;84.42
72414;BME280;60995;52.154;4.498;2023-04-08T04:04:57;102374.41;;;9.09;84.67
72414;BME280;60995;52.154;4.498;2023-04-08T04:07:14;102373.09;;;9.01;84.57
72414;BME280;60995;52.154;4.498;2023-04-08T04:09:30;102367.88;;;8.98;84.51
72414;BME280;60995;52.154;4.498;2023-04-08T04:11:46;102384.63;;;9.04;84.41
72414;BME280;60995;52.154;4.498;2023-04-08T04:14:02;102375.66;;;9.04;84.19
72414;BME280;60995;52.154;4.498;2023-04-08T04:16:19;102376.44;;;8.90;84.20
72414;BME280;60995;52.154;4.498;2023-04-08T04:18:35;102378.63;;;8.83;84.26
72414;BME280;60995;52.154;4.498;2023-04-08T04:20:51;102382.19;;;8.84;83.85
72414;BME280;60995;52.154;4.498;2023-04-08T04:23:08;102383.19;;;8.83;84.26
72414;BME280;60995;52.154;4.498;2023-04-08T04:25:25;102389.03;;;8.75;84.17
72414;BME280;60995;52.154;4.498;2023-04-08T04:27:41;102389.28;;;8.70;84.73
72414;BME280;60995;52.154;4.498;2023-04-08T04:29:57;102398.44;;;8.68;84.73
72414;BME280;60995;52.154;4.498;2023-04-08T04:32:15;102397.41;;;8.70;84.90
72414;BME280;60995;52.154;4.498;2023-04-08T04:34:31;102399.06;;;8.73;85.31
72414;BME280;60995;52.154;4.498;2023-04-08T04:36:48;102405.59;;;8.85;85.46
72414;BME280;60995;52.154;4.498;2023-04-08T04:39:04;102405.94;;;8.63;86.13
72414;BME280;60995;52.154;4.498;2023-04-08T04:41:20;102405.44;;;8.72;85.88
72414;BME280;60995;52.154;4.498;2023-04-08T04:43:36;102407.34;;;8.86;85.87
72414;BME280;60995;52.154;4.498;2023-04-08T04:45:53;102407.69;;;9.12;84.78
72414;BME280;60995;52.154;4.498;2023-04-08T04:48:10;102410.13;;;9.00;84.45
72414;BME280;60995;52.154;4.498;2023-04-08T04:50:26;102423.94;;;8.96;84.51
72414;BME280;60995;52.154;4.498;2023-04-08T04:52:43;102421.16;;;8.97;84.36
72414;BME280;60995;52.154;4.498;2023-04-08T04:54:59;102422.53;;;8.88;84.51
72414;BME280;60995;52.154;4.498;2023-04-08T04:57:15;102420.78;;;9.03;84.82
72414;BME280;60995;52.154;4.498;2023-04-08T04:59:32;102418.69;;;9.08;84.53
72414;BME280;60995;52.154;4.498;2023-04-08T05:01:48;102421.03;;;9.15;84.51
72414;BME280;60995;52.154;4.498;2023-04-08T05:04:04;102430.06;;;9.15;83.89
72414;BME280;60995;52.154;4.498;2023-04-08T05:06:22;102431.81;;;9.00;84.57
72414;BME280;60995;52.154;4.498;2023-04-08T05:08:39;102432.22;;;8.92;84.87
72414;BME280;60995;52.154;4.498;2023-04-08T05:10:55;102431.00;;;8.98;85.06
72414;BME280;60995;52.154;4.498;2023-04-08T05:13:14;102436.34;;;9.16;84.97
72414;BME280;60995;52.154;4.498;2023-04-08T05:15:31;102425.16;;;9.22;84.64
72414;BME280;60995;52.154;4.498;2023-04-08T05:17:47;102426.72;;;9.26;84.62
72414;BME280;60995;52.154;4.498;2023-04-08T05:20:04;102429.28;;;9.43;84.74
72414;BME280;60995;52.154;4.498;2023-04-08T05:22:20;102434.13;;;9.22;84.04
72414;BME280;60995;52.154;4.498;2023-04-08T05:24:36;102429.31;;;9.27;84.25
72414;BME280;60995;52.154;4.498;2023-04-08T05:26:53;102437.00;;;9.35;84.26
72414;BME280;60995;52.154;4.498;2023-04-08T05:29:09;102441.69;;;9.48;83.57
72414;BME280;60995;52.154;4.498;2023-04-08T05:31:26;102435.66;;;9.42;83.30
72414;BME280;60995;52.154;4.498;2023-04-08T05:33:43;102435.41;;;9.47;83.18
72414;BME280;60995;52.154;4.498;2023-04-08T05:35:59;102441.88;;;9.44;83.31
72414;BME280;60995;52.154;4.498;2023-04-08T05:38:15;102440.13;;;9.43;82.46
72414;BME280;60995;52.154;4.498;2023-04-08T05:40:32;102442.88;;;9.58;83.04
72414;BME280;60995;52.154;4.498;2023-04-08T05:42:48;102448.19;;;9.29;82.54
72414;BME280;60995;52.154;4.498;2023-04-08T05:45:05;102459.63;;;9.34;82.78
72414;BME280;60995;52.154;4.498;2023-04-08T05:47:22;102459.34;;;9.55;82.82
72414;BME280;60995;52.154;4.498;2023-04-08T05:49:38;102466.72;;;9.37;82.00
72414;BME280;60995;52.154;4.498;2023-04-08T05:51:54;102459.28;;;9.40;81.30
72414;BME280;60995;52.154;4.498;2023-04-08T05:54:10;102465.41;;;9.12;81.69
72414;BME280;60995;52.154;4.498;2023-04-08T05:56:27;102471.38;;;8.87;81.92
72414;BME280;60995;52.154;4.498;2023-04-08T05:58:43;102473.81;;;9.07;81.21
72414;BME280;60995;52.154;4.498;2023-04-08T06:00:59;102470.50;;;9.02;80.96
72414;BME280;60995;52.154;4.498;2023-04-08T06:03:16;102473.38;;;8.99;80.48
72414;BME280;60995;52.154;4.498;2023-04-08T06:05:32;102470.94;;;9.10;80.02
72414;BME280;60995;52.154;4.498;2023-04-08T06:07:48;102479.47;;;9.35;79.74
72414;BME280;60995;52.154;4.498;2023-04-08T06:10:06;102464.16;;;9.50;79.08
72414;BME280;60995;52.154;4.498;2023-04-08T06:12:23;102470.41;;;9.66;78.33
72414;BME280;60995;52.154;4.498;2023-04-08T06:14:39;102477.75;;;9.64;78.04
72414;BME280;60995;52.154;4.498;2023-04-08T06:16:55;102470.75;;;9.90;77.01
72414;BME280;60995;52.154;4.498;2023-04-08T06:19:12;102474.38;;;9.91;76.43
72414;BME280;60995;52.154;4.498;2023-04-08T06:21:28;102477.25;;;10.33;76.28
72414;BME280;60995;52.154;4.498;2023-04-08T06:23:44;102487.06;;;10.35;76.27
72414;BME280;60995;52.154;4.498;2023-04-08T06:26:00;102477.38;;;10.46;76.00
72414;BME280;60995;52.154;4.498;2023-04-08T06:28:17;102476.97;;;10.52;75.11
72414;BME280;60995;52.154;4.498;2023-04-08T06:30:33;102481.31;;;10.83;74.96
72414;BME280;60995;52.154;4.498;2023-04-08T06:32:49;102485.03;;;10.82;73.85
72414;BME280;60995;52.154;4.498;2023-04-08T06:35:06;102487.41;;;10.87;74.61
72414;BME280;60995;52.154;4.498;2023-04-08T06:37:23;102490.28;;;11.13;74.22
72414;BME280;60995;52.154;4.498;2023-04-08T06:39:39;102488.09;;;10.90;72.65
72414;BME280;60995;52.154;4.498;2023-04-08T06:41:56;102492.13;;;10.70;72.76
72414;BME280;60995;52.154;4.498;2023-04-08T06:44:13;102500.34;;;10.98;71.83
72414;BME280;60995;52.154;4.498;2023-04-08T06:46:29;102503.72;;;11.29;71.15
72414;BME280;60995;52.154;4.498;2023-04-08T06:48:45;102507.88;;;11.07;70.93
72414;BME280;60995;52.154;4.498;2023-04-08T06:51:01;102504.53;;;11.58;70.66
72414;BME280;60995;52.154;4.498;2023-04-08T06:53:18;102513.97;;;10.96;71.01
72414;BME280;60995;52.154;4.498;2023-04-08T06:55:34;102509.69;;;11.06;70.52
72414;BME280;60995;52.154;4.498;2023-04-08T06:57:50;102511.28;;;10.53;70.23
72414;BME280;60995;52.154;4.498;2023-04-08T07:00:07;102521.38;;;10.51;71.34
72414;BME280;60995;52.154;4.498;2023-04-08T07:02:24;102522.16;;;10.82;70.88
72414;BME280;60995;52.154;4.498;2023-04-08T07:04:40;102528.53;;;11.09;69.99
72414;BME280;60995;52.154;4.498;2023-04-08T07:06:56;102530.28;;;10.96;69.42
72414;BME280;60995;52.154;4.498;2023-04-08T07:09:13;102533.84;;;11.25;68.20
72414;BME280;60995;52.154;4.498;2023-04-08T07:11:29;102538.81;;;11.04;67.52
72414;BME280;60995;52.154;4.498;2023-04-08T07:13:45;102549.72;;;10.75;66.97
72414;BME280;60995;52.154;4.498;2023-04-08T07:16:02;102543.28;;;10.48;67.83
72414;BME280;60995;52.154;4.498;2023-04-08T07:18:18;102549.00;;;10.27;68.13
72414;BME280;60995;52.154;4.498;2023-04-08T07:20:36;102546.75;;;10.35;68.53
72414;BME280;60995;52.154;4.498;2023-04-08T07:22:53;102553.97;;;10.35;71.10
72414;BME280;60995;52.154;4.498;2023-04-08T07:25:09;102551.31;;;10.19;70.67
72414;BME280;60995;52.154;4.498;2023-04-08T07:27:25;102551.03;;;10.39;70.43
72414;BME280;60995;52.154;4.498;2023-04-08T07:29:42;102549.72;;;10.90;69.87
72414;BME280;60995;52.154;4.498;2023-04-08T07:31:58;102543.84;;;11.11;68.64
72414;BME280;60995;52.154;4.498;2023-04-08T07:34:14;102553.47;;;11.58;71.06
72414;BME280;60995;52.154;4.498;2023-04-08T07:36:31;102554.56;;;12.23;68.87
72414;BME280;60995;52.154;4.498;2023-04-08T07:38:47;102552.81;;;12.22;65.41
72414;BME280;60995;52.154;4.498;2023-04-08T07:41:03;102565.06;;;11.47;66.48
72414;BME280;60995;52.154;4.498;2023-04-08T07:43:20;102562.25;;;11.34;65.39
72414;BME280;60995;52.154;4.498;2023-04-08T07:45:36;102565.00;;;10.91;67.09
72414;BME280;60995;52.154;4.498;2023-04-08T07:47:53;102560.25;;;10.95;67.22
72414;BME280;60995;52.154;4.498;2023-04-08T07:50:10;102559.00;;;11.00;67.15
72414;BME280;60995;52.154;4.498;2023-04-08T07:52:26;102561.28;;;11.21;68.52
72414;BME280;60995;52.154;4.498;2023-04-08T07:54:42;102563.84;;;11.09;67.28
72414;BME280;60995;52.154;4.498;2023-04-08T07:56:59;102556.72;;;11.36;67.38
72414;BME280;60995;52.154;4.498;2023-04-08T07:59:16;102563.72;;;11.67;65.93
72414;BME280;60995;52.154;4.498;2023-04-08T08:01:33;102562.34;;;12.15;63.89
72414;BME280;60995;52.154;4.498;2023-04-08T08:03:51;102559.91;;;12.63;64.09
72414;BME280;60995;52.154;4.498;2023-04-08T08:06:07;102565.13;;;12.40;64.33
72414;BME280;60995;52.154;4.498;2023-04-08T08:08:23;102564.56;;;12.35;63.14
72414;BME280;60995;52.154;4.498;2023-04-08T08:10:40;102573.75;;;12.73;64.26
72414;BME280;60995;52.154;4.498;2023-04-08T08:12:56;102570.25;;;14.55;58.96
72414;BME280;60995;52.154;4.498;2023-04-08T08:15:12;102559.66;;;16.08;52.69
72414;BME280;60995;52.154;4.498;2023-04-08T08:17:29;102566.56;;;15.13;54.25
72414;BME280;60995;52.154;4.498;2023-04-08T08:19:48;102578.44;;;14.08;55.69
72414;BME280;60995;52.154;4.498;2023-04-08T08:22:04;102582.19;;;13.94;56.60
72414;BME280;60995;52.154;4.498;2023-04-08T08:24:21;102578.97;;;14.71;54.81
72414;BME280;60995;52.154;4.498;2023-04-08T08:26:38;102589.78;;;14.37;57.19
72414;BME280;60995;52.154;4.498;2023-04-08T08:28:55;102584.47;;;15.05;54.87
72414;BME280;60995;52.154;4.498;2023-04-08T08:31:11;102584.59;;;16.26;52.36
72414;BME280;60995;52.154;4.498;2023-04-08T08:33:28;102586.00;;;17.14;48.05
72414;BME280;60995;52.154;4.498;2023-04-08T08:35:44;102588.97;;;17.52;47.72
72414;BME280;60995;52.154;4.498;2023-04-08T08:38:01;102589.53;;;18.26;46.42
72414;BME280;60995;52.154;4.498;2023-04-08T08:40:18;102580.50;;;21.17;40.13
72414;BME280;60995;52.154;4.498;2023-04-08T08:42:34;102577.88;;;22.51;36.40
72414;BME280;60995;52.154;4.498;2023-04-08T08:44:50;102569.13;;;24.59;34.68
72414;BME280;60995;52.154;4.498;2023-04-08T08:47:07;102567.94;;;25.73;31.72
72414;BME280;60995;52.154;4.498;2023-04-08T08:49:23;102579.16;;;26.73;28.75
72414;BME280;60995;52.154;4.498;2023-04-08T08:51:39;102571.34;;;26.62;29.71
72414;BME280;60995;52.154;4.498;2023-04-08T08:53:56;102577.94;;;25.52;31.06
72414;BME280;60995;52.154;4.498;2023-04-08T08:56:17;102570.06;;;25.71;29.96
72414;BME280;60995;52.154;4.498;2023-04-08T08:58:33;102565.81;;;25.75;29.72
72414;BME280;60995;52.154;4.498;2023-04-08T09:00:50;102570.16;;;24.81;30.80
72414;BME280;60995;52.154;4.498;2023-04-08T09:03:20;102572.47;;;22.66;34.07
72414;BME280;60995;52.154;4.498;2023-04-08T09:05:53;102557.34;;;24.42;32.63
72414;BME280;60995;52.154;4.498;2023-04-08T09:08:40;102565.41;;;22.30;34.98
72414;BME280;60995;52.154;4.498;2023-04-08T09:13:34;102553.84;;;25.38;32.04
72414;BME280;60995;52.154;4.498;2023-04-08T09:16:01;102568.34;;;26.63;28.55
72414;BME280;60995;52.154;4.498;2023-04-08T09:18:22;102565.97;;;25.88;29.50
72414;BME280;60995;52.154;4.498;2023-04-08T09:20:51;102560.72;;;27.55;26.75
72414;BME280;60995;52.154;4.498;2023-04-08T09:23:11;102571.50;;;25.67;29.29
72414;BME280;60995;52.154;4.498;2023-04-08T09:25:30;102567.44;;;25.03;30.61
72414;BME280;60995;52.154;4.498;2023-04-08T09:27:48;102565.22;;;23.60;31.68
72414;BME280;60995;52.154;4.498;2023-04-08T09:30:13;102573.00;;;23.34;33.99
72414;BME280;60995;52.154;4.498;2023-04-08T09:32:46;102567.97;;;24.15;32.29
72414;BME280;60995;52.154;4.498;2023-04-08T09:35:03;102568.88;;;23.84;32.81
72414;BME280;60995;52.154;4.498;2023-04-08T09:37:20;102573.22;;;23.55;34.10
72414;BME280;60995;52.154;4.498;2023-04-08T09:39:36;102568.88;;;23.61;33.42
72414;BME280;60995;52.154;4.498;2023-04-08T09:41:54;102571.06;;;21.71;37.23
72414;BME280;60995;52.154;4.498;2023-04-08T09:44:14;102573.50;;;22.73;35.72
72414;BME280;60995;52.154;4.498;2023-04-08T09:49:06;102573.78;;;23.74;31.87
72414;BME280;60995;52.154;4.498;2023-04-08T09:54:41;102573.56;;;25.13;29.27
72414;BME280;60995;52.154;4.498;2023-04-08T09:57:12;102570.50;;;23.47;31.00
72414;BME280;60995;52.154;4.498;2023-04-08T09:59:32;102564.78;;;24.94;30.08
72414;BME280;60995;52.154;4.498;2023-04-08T10:01:53;102571.56;;;25.37;28.38
72414;BME280;60995;52.154;4.498;2023-04-08T10:04:15;102579.78;;;22.42;32.44
72414;BME280;60995;52.154;4.498;2023-04-08T10:06:35;102573.19;;;23.24;31.98
72414;BME280;60995;52.154;4.498;2023-04-08T10:08:55;102574.91;;;22.11;33.07
72414;BME280;60995;52.154;4.498;2023-04-08T10:11:14;102571.66;;;23.21;32.05
72414;BME280;60995;52.154;4.498;2023-04-08T10:13:32;102566.81;;;23.15;31.00
72414;BME280;60995;52.154;4.498;2023-04-08T10:15:49;102566.41;;;24.36;29.87
72414;BME280;60995;52.154;4.498;2023-04-08T10:22:50;102573.66;;;21.72;33.49
72414;BME280;60995;52.154;4.498;2023-04-08T10:27:48;102565.22;;;22.07;34.36
72414;BME280;60995;52.154;4.498;2023-04-08T10:32:41;102562.50;;;24.07;30.72
72414;BME280;60995;52.154;4.498;2023-04-08T10:34:57;102570.97;;;23.82;30.67
72414;BME280;60995;52.154;4.498;2023-04-08T10:37:13;102568.13;;;21.21;35.30
72414;BME280;60995;52.154;4.498;2023-04-08T10:39:30;102551.00;;;23.87;31.24
72414;BME280;60995;52.154;4.498;2023-04-08T10:41:48;102562.78;;;21.71;32.89
72414;BME280;60995;52.154;4.498;2023-04-08T10:44:24;102558.34;;;19.40;38.51
72414;BME280;60995;52.154;4.498;2023-04-08T10:46:47;102566.38;;;20.86;34.70
72414;BME280;60995;52.154;4.498;2023-04-08T10:49:05;102562.34;;;21.06;33.73
72414;BME280;60995;52.154;4.498;2023-04-08T10:51:21;102564.31;;;21.22;32.76
72414;BME280;60995;52.154;4.498;2023-04-08T10:53:38;102551.97;;;21.43;31.53
72414;BME280;60995;52.154;4.498;2023-04-08T10:58:32;102559.22;;;19.86;32.67
72414;BME280;60995;52.154;4.498;2023-04-08T11:00:49;102570.88;;;21.21;31.72
72414;BME280;60995;52.154;4.498;2023-04-08T11:03:07;102572.66;;;22.14;30.32
72414;BME280;60995;52.154;4.498;2023-04-08T11:05:25;102565.59;;;22.20;29.96
72414;BME280;60995;52.154;4.498;2023-04-08T11:07:42;102566.72;;;23.40;29.09
72414;BME280;60995;52.154;4.498;2023-04-08T11:10:02;102565.09;;;23.54;28.67
72414;BME280;60995;52.154;4.498;2023-04-08T11:12:18;102563.66;;;21.37;29.77
72414;BME280;60995;52.154;4.498;2023-04-08T11:14:35;102562.41;;;20.36;31.96
72414;BME280;60995;52.154;4.498;2023-04-08T11:16:53;102560.38;;;20.90;31.21
72414;BME280;60995;52.154;4.498;2023-04-08T11:19:09;102573.50;;;21.39;30.94
72414;BME280;60995;52.154;4.498;2023-04-08T11:21:29;102562.63;;;22.13;29.14
72414;BME280;60995;52.154;4.498;2023-04-08T11:23:50;102560.97;;;20.49;32.08
72414;BME280;60995;52.154;4.498;2023-04-08T11:26:07;102552.09;;;19.65;34.41
72414;BME280;60995;52.154;4.498;2023-04-08T11:28:25;102553.78;;;21.18;30.21
72414;BME280;60995;52.154;4.498;2023-04-08T11:30:42;102552.94;;;20.64;32.62
72414;BME280;60995;52.154;4.498;2023-04-08T11:32:58;102559.09;;;20.32;32.24
72414;BME280;60995;52.154;4.498;2023-04-08T11:35:15;102554.28;;;19.90;32.71
72414;BME280;60995;52.154;4.498;2023-04-08T11:37:36;102564.34;;;19.53;34.38
72414;BME280;60995;52.154;4.498;2023-04-08T11:39:54;102563.97;;;20.82;32.36
72414;BME280;60995;52.154;4.498;2023-04-08T11:42:27;102560.88;;;21.28;31.81
72414;BME280;60995;52.154;4.498;2023-04-08T11:44:44;102557.72;;;20.10;33.95
72414;BME280;60995;52.154;4.498;2023-04-08T11:47:01;102559.97;;;20.32;32.99
72414;BME280;60995;52.154;4.498;2023-04-08T11:49:17;102563.66;;;20.23;31.70
72414;BME280;60995;52.154;4.498;2023-04-08T11:51:35;102557.03;;;19.62;34.37
72414;BME280;60995;52.154;4.498;2023-04-08T11:54:25;102559.72;;;20.26;33.11
72414;BME280;60995;52.154;4.498;2023-04-08T11:56:46;102559.56;;;19.73;33.97
72414;BME280;60995;52.154;4.498;2023-04-08T11:59:03;102560.19;;;19.67;34.59
72414;BME280;60995;52.154;4.498;2023-04-08T12:01:19;102555.13;;;20.79;32.22
72414;BME280;60995;52.154;4.498;2023-04-08T12:03:36;102559.50;;;20.19;33.41
72414;BME280;60995;52.154;4.498;2023-04-08T12:05:52;102558.59;;;18.81;36.21
72414;BME280;60995;52.154;4.498;2023-04-08T12:08:09;102558.84;;;19.53;33.94
72414;BME280;60995;52.154;4.498;2023-04-08T12:10:25;102565.97;;;19.74;34.33
72414;BME280;60995;52.154;4.498;2023-04-08T12:12:42;102566.28;;;20.95;31.62
72414;BME280;60995;52.154;4.498;2023-04-08T12:14:58;102559.78;;;19.90;33.45
72414;BME280;60995;52.154;4.498;2023-04-08T12:17:14;102560.22;;;18.74;36.08
72414;BME280;60995;52.154;4.498;2023-04-08T12:19:31;102557.31;;;20.05;34.57
72414;BME280;60995;52.154;4.498;2023-04-08T12:21:47;102564.72;;;20.22;33.33
72414;BME280;60995;52.154;4.498;2023-04-08T12:24:03;102563.56;;;19.79;33.77
72414;BME280;60995;52.154;4.498;2023-04-08T12:26:20;102555.94;;;18.99;35.41
72414;BME280;60995;52.154;4.498;2023-04-08T12:28:36;102554.41;;;19.24;34.55
72414;BME280;60995;52.154;4.498;2023-04-08T12:30:52;102557.53;;;19.29;33.98